createdAt,value
2022-10-13T00:00:49.495Z,95838.72
2022-10-13T00:03:17.193Z,95836.13
2022-10-13T00:05:46.837Z,95839.03
2022-10-13T00:08:15.402Z,95831.88
2022-10-13T00:10:46.474Z,95840.34
2022-10-13T00:13:14.064Z,95843.53
2022-10-13T00:15:43.048Z,95837.72
2022-10-13T00:18:10.118Z,95835.06
2022-10-13T00:20:42.576Z,95840.91
2022-10-13T00:23:09.540Z,95823.72
2022-10-13T00:25:44.445Z,95819.47
2022-10-13T00:28:30.447Z,95830.59
2022-10-13T00:30:57.717Z,95809.19
2022-10-13T00:33:24.575Z,95811.59
2022-10-13T00:35:51.365Z,95828.25
2022-10-13T00:38:20.851Z,95820.28
2022-10-13T00:40:48.645Z,95816.63
2022-10-13T00:43:27.703Z,95815.84
2022-10-13T00:45:54.906Z,95813.16
2022-10-13T00:48:26.681Z,95814.47
2022-10-13T00:50:53.974Z,95805.50
2022-10-13T00:53:23.647Z,95808.94
2022-10-13T00:55:52.786Z,95805.50
2022-10-13T00:58:25.423Z,95799.44
2022-10-13T01:00:53.533Z,95803.94
2022-10-13T01:03:21.273Z,95812.13
2022-10-13T01:05:50.409Z,95807.09
2022-10-13T01:08:19.840Z,95812.63
2022-10-13T01:10:48.044Z,95813.47
2022-10-13T01:13:34.540Z,95809.75
2022-10-13T01:16:16.096Z,95808.16
2022-10-13T01:19:09.135Z,95797.09
2022-10-13T01:21:44.830Z,95810.31
2022-10-13T01:24:36.545Z,95815.84
2022-10-13T01:27:12.499Z,95810.31
2022-10-13T01:30:03.873Z,95806.06
2022-10-13T01:33:00.793Z,95809.25
2022-10-13T01:36:09.304Z,95808.72
2022-10-13T01:38:44.990Z,95811.38
2022-10-13T01:41:20.456Z,95810.84
2022-10-13T01:43:54.007Z,95809.78
2022-10-13T01:46:45.858Z,95810.19
2022-10-13T01:49:16.454Z,95812.53
2022-10-13T01:51:45.070Z,95800.66
2022-10-13T01:54:12.157Z,95808.09
2022-10-13T01:56:39.096Z,95801.81
2022-10-13T01:59:11.483Z,95809.75
2022-10-13T02:01:51.676Z,95804.19
2022-10-13T02:04:23.692Z,95804.22
2022-10-13T02:07:01.351Z,95802.38
2022-10-13T02:09:34.455Z,95797.56
2022-10-13T02:12:20.951Z,95803.97
2022-10-13T02:14:50.239Z,95808.72
2022-10-13T02:17:17.837Z,95810.28
2022-10-13T02:19:45.632Z,95799.72
2022-10-13T02:22:14.991Z,95797.59
2022-10-13T02:24:42.214Z,95791.50
2022-10-13T02:27:09.520Z,95783.31
2022-10-13T02:30:06.878Z,95781.72
2022-10-13T02:32:33.704Z,95786.72
2022-10-13T02:35:00.435Z,95787.53
2022-10-13T02:37:27.428Z,95773.53
2022-10-13T02:39:54.211Z,95790.19
2022-10-13T02:42:21.617Z,95784.09
2022-10-13T02:44:48.509Z,95784.56
2022-10-13T02:47:15.258Z,95784.84
2022-10-13T02:49:42.199Z,95771.16
2022-10-13T02:52:09.117Z,95773.56
2022-10-13T02:54:41.764Z,95779.59
2022-10-13T02:57:08.557Z,95778.03
2022-10-13T02:59:35.297Z,95774.81
2022-10-13T03:02:02.396Z,95773.28
2022-10-13T03:04:30.132Z,95763.25
2022-10-13T03:06:59.136Z,95762.19
2022-10-13T03:09:25.987Z,95763.22
2022-10-13T03:11:52.837Z,95765.81
2022-10-13T03:14:19.656Z,95756.88
2022-10-13T03:16:46.533Z,95760.59
2022-10-13T03:19:13.822Z,95768.81
2022-10-13T03:21:40.800Z,95773.28
2022-10-13T03:24:07.728Z,95769.00
2022-10-13T03:26:35.166Z,95774.84
2022-10-13T03:29:02.722Z,95779.81
2022-10-13T03:31:29.552Z,95777.44
2022-10-13T03:34:03.210Z,95784.56
2022-10-13T03:36:30.012Z,95781.13
2022-10-13T03:38:56.698Z,95781.09
2022-10-13T03:41:23.736Z,95782.69
2022-10-13T03:43:50.739Z,95793.72
2022-10-13T03:46:18.234Z,95777.69
2022-10-13T03:48:47.752Z,95784.22
2022-10-13T03:51:19.822Z,95779.28
2022-10-13T03:53:50.590Z,95777.94
2022-10-13T03:56:23.607Z,95785.72
2022-10-13T03:58:54.208Z,95777.38
2022-10-13T04:01:26.768Z,95776.31
2022-10-13T04:03:55.746Z,95785.78
2022-10-13T04:06:23.444Z,95762.91
2022-10-13T04:08:50.559Z,95776.13
2022-10-13T04:11:17.555Z,95769.41
2022-10-13T04:13:50.688Z,95765.47
2022-10-13T04:16:24.008Z,95766.09
2022-10-13T04:18:59.917Z,95766.91
2022-10-13T04:21:47.008Z,95768.75
2022-10-13T04:24:14.829Z,95769.69
2022-10-13T04:26:41.589Z,95770.22
2022-10-13T04:29:10.891Z,95764.75
2022-10-13T04:31:39.111Z,95763.41
2022-10-13T04:34:07.726Z,95766.84
2022-10-13T04:36:34.550Z,95760.41
2022-10-13T04:39:04.076Z,95768.47
2022-10-13T04:41:33.163Z,95762.03
2022-10-13T04:44:02.389Z,95765.75
2022-10-13T04:46:29.596Z,95763.91
2022-10-13T04:48:57.017Z,95766.25
2022-10-13T04:51:29.067Z,95766.91
2022-10-13T04:54:01.220Z,95756.34
2022-10-13T04:56:28.756Z,95758.88
2022-10-13T04:59:00.089Z,95773.19
2022-10-13T05:01:27.433Z,95774.53
2022-10-13T05:03:56.324Z,95776.91
2022-10-13T05:06:28.796Z,95781.22
2022-10-13T05:08:56.581Z,95777.25
2022-10-13T05:11:24.379Z,95780.59
2022-10-13T05:13:51.482Z,95790.03
2022-10-13T05:16:21.230Z,95778.78
2022-10-13T05:18:49.464Z,95787.50
2022-10-13T05:21:19.302Z,95789.50
2022-10-13T05:23:46.805Z,95799.69
2022-10-13T05:26:17.036Z,95802.28
2022-10-13T05:28:44.463Z,95793.91
2022-10-13T05:31:23.148Z,95793.09
2022-10-13T05:33:51.896Z,95797.63
2022-10-13T05:36:30.095Z,95806.28
2022-10-13T05:38:59.219Z,95803.94
2022-10-13T05:41:27.791Z,95819.81
2022-10-13T05:43:59.004Z,95817.19
2022-10-13T05:46:26.294Z,95815.56
2022-10-13T05:48:53.355Z,95826.16
2022-10-13T05:51:32.191Z,95828.75
2022-10-13T05:54:23.023Z,95826.19
2022-10-13T05:57:20.467Z,95829.06
2022-10-13T05:59:58.176Z,95833.03
2022-10-13T06:02:28.461Z,95836.72
2022-10-13T06:04:57.412Z,95838.84
2022-10-13T06:07:24.636Z,95835.66
2022-10-13T06:09:51.892Z,95825.63
2022-10-13T06:12:19.080Z,95830.41
2022-10-13T06:14:46.023Z,95839.91
2022-10-13T06:17:12.965Z,95831.97
2022-10-13T06:19:42.930Z,95820.06
2022-10-13T06:22:09.722Z,95830.38
2022-10-13T06:24:36.923Z,95836.72
2022-10-13T06:27:07.052Z,95827.47
2022-10-13T06:29:33.869Z,95825.09
2022-10-13T06:32:00.762Z,95836.22
2022-10-13T06:34:27.689Z,95825.56
2022-10-13T06:36:54.521Z,95822.38
2022-10-13T06:39:21.362Z,95819.22
2022-10-13T06:41:48.319Z,95821.91
2022-10-13T06:44:15.016Z,95828.03
2022-10-13T06:46:42.686Z,95803.94
2022-10-13T06:49:10.387Z,95819.81
2022-10-13T06:51:37.362Z,95813.94
2022-10-13T06:54:04.282Z,95806.97
2022-10-13T06:56:33.363Z,95811.22
2022-10-13T06:59:03.209Z,95809.28
2022-10-13T07:01:30.180Z,95802.66
2022-10-13T07:03:59.042Z,95808.25
2022-10-13T07:06:25.878Z,95803.06
2022-10-13T07:08:53.869Z,95802.59
2022-10-13T07:11:20.805Z,95808.25
2022-10-13T07:13:53.777Z,95792.56
2022-10-13T07:16:20.572Z,95794.44
2022-10-13T07:18:48.346Z,95801.94
2022-10-13T07:21:16.107Z,95804.69
2022-10-13T07:23:42.937Z,95805.50
2022-10-13T07:26:13.480Z,95801.94
2022-10-13T07:28:41.807Z,95788.34
2022-10-13T07:31:14.842Z,95805.25
2022-10-13T07:33:44.204Z,95798.03
2022-10-13T07:36:12.003Z,95807.88
2022-10-13T07:38:39.207Z,95808.09
2022-10-13T07:41:09.299Z,95797.53
2022-10-13T07:43:35.974Z,95794.69
2022-10-13T07:46:05.909Z,95800.47
2022-10-13T07:48:33.804Z,95793.13
2022-10-13T07:51:11.933Z,95790.88
2022-10-13T07:53:41.094Z,95798.28
2022-10-13T07:56:10.540Z,95800.81
2022-10-13T07:58:38.753Z,95793.81
2022-10-13T08:01:06.222Z,95795.84
2022-10-13T08:03:40.983Z,95788.34
2022-10-13T08:06:14.495Z,95786.09
2022-10-13T08:08:41.462Z,95787.16
2022-10-13T08:11:16.236Z,95785.13
2022-10-13T08:13:47.789Z,95777.25
2022-10-13T08:16:19.385Z,95782.19
2022-10-13T08:18:46.695Z,95783.88
2022-10-13T08:24:03.482Z,95771.56
2022-10-13T08:26:30.823Z,95770.31
2022-10-13T08:29:16.519Z,95765.50
2022-10-13T08:31:44.839Z,95766.44
2022-10-13T08:34:12.267Z,95770.09
2022-10-13T08:36:39.670Z,95759.16
2022-10-13T08:39:07.041Z,95751.09
2022-10-13T08:41:40.557Z,95758.72
2022-10-13T08:45:06.339Z,95754.84
2022-10-13T08:47:24.433Z,95755.63
2022-10-13T08:49:54.342Z,95750.31
2022-10-13T08:52:25.880Z,95744.72
2022-10-13T08:54:54.926Z,95747.28
2022-10-13T08:57:23.428Z,95734.66
2022-10-13T08:59:52.700Z,95743.81
2022-10-13T09:02:29.584Z,95733.56
2022-10-13T09:04:59.201Z,95732.94
2022-10-13T09:07:29.596Z,95728.63
2022-10-13T09:09:56.499Z,95726.28
2022-10-13T09:12:25.681Z,95728.09
2022-10-13T09:14:59.079Z,95722.91
2022-10-13T09:17:27.804Z,95728.38
2022-10-13T09:20:05.974Z,95717.06
2022-10-13T09:22:34.363Z,95728.41
2022-10-13T09:25:07.105Z,95721.13
2022-10-13T09:27:46.105Z,95714.84
2022-10-13T09:30:32.902Z,95702.59
2022-10-13T09:33:09.374Z,95692.59
2022-10-13T09:35:37.318Z,95690.94
2022-10-13T09:38:05.426Z,95677.06
2022-10-13T09:40:34.106Z,95677.81
2022-10-13T09:43:02.698Z,95675.16
2022-10-13T09:45:31.093Z,95673.97
2022-10-13T09:48:19.380Z,95678.81
2022-10-13T09:50:52.159Z,95669.91
2022-10-13T09:53:25.212Z,95680.78
2022-10-13T09:56:17.066Z,95677.53
2022-10-13T09:59:05.530Z,95676.63
2022-10-13T10:01:37.401Z,95671.38
2022-10-13T10:04:11.035Z,95663.38
2022-10-13T10:06:40.352Z,95661.16
2022-10-13T10:09:37.875Z,95661.91
2022-10-13T10:12:06.317Z,95650.63
2022-10-13T10:14:37.082Z,95646.06
2022-10-13T10:17:33.555Z,95639.91
2022-10-13T10:20:38.215Z,95635.59
2022-10-13T10:23:04.998Z,95626.94
2022-10-13T10:25:39.876Z,95633.88
2022-10-13T10:28:31.769Z,95624.47
2022-10-13T10:31:10.446Z,95623.16
2022-10-13T10:33:55.926Z,95620.63
2022-10-13T10:36:33.640Z,95613.63
2022-10-13T10:39:19.553Z,95610.81
2022-10-13T10:42:00.813Z,95608.59
2022-10-13T10:44:39.715Z,95606.44
2022-10-13T10:47:30.313Z,95599.50
2022-10-13T10:50:08.222Z,95601.44
2022-10-13T10:53:23.082Z,95592.72
2022-10-13T10:55:52.542Z,95584.34
2022-10-13T10:58:35.472Z,95570.63
2022-10-13T11:01:14.870Z,95581.19
2022-10-13T11:04:22.029Z,95573.16
2022-10-13T11:06:48.783Z,95563.41
2022-10-13T11:09:41.267Z,95559.34
2022-10-13T11:13:08.747Z,95559.09
2022-10-13T11:15:46.935Z,95556.56
2022-10-13T11:18:51.176Z,95556.72
2022-10-13T11:21:19.266Z,95544.97
2022-10-13T11:23:49.175Z,95548.09
2022-10-13T11:26:43.360Z,95534.97
2022-10-13T11:29:46.438Z,95530.56
2022-10-13T11:32:25.807Z,95527.38
2022-10-13T11:35:04.545Z,95531.50
2022-10-13T11:38:07.723Z,95524.69
2022-10-13T11:41:02.913Z,95526.16
2022-10-13T11:44:20.419Z,95519.22
2022-10-13T11:47:08.168Z,95514.91
2022-10-13T11:50:08.027Z,95514.13
2022-10-13T11:53:20.437Z,95510.28
2022-10-13T11:55:57.614Z,95498.63
2022-10-13T11:58:32.869Z,95497.50
2022-10-13T12:01:01.561Z,95496.81
2022-10-13T12:03:34.515Z,95490.75
2022-10-13T12:06:04.543Z,95489.78
2022-10-13T12:08:35.206Z,95493.88
2022-10-13T12:11:07.565Z,95483.59
2022-10-13T12:13:37.304Z,95487.38
2022-10-13T12:16:07.305Z,95480.50
2022-10-13T12:18:40.336Z,95482.38
2022-10-13T12:21:17.507Z,95484.28
2022-10-13T12:23:44.372Z,95493.97
2022-10-13T12:26:19.647Z,95487.16
2022-10-13T12:28:56.616Z,95495.72
2022-10-13T12:31:26.408Z,95492.00
2022-10-13T12:33:55.917Z,95490.56
2022-10-13T12:36:30.927Z,95484.31
2022-10-13T12:39:06.210Z,95476.84
2022-10-13T12:41:36.004Z,95474.50
2022-10-13T12:44:06.727Z,95477.22
2022-10-13T12:46:40.180Z,95472.59
2022-10-13T12:49:15.829Z,95464.78
2022-10-13T12:51:46.043Z,95460.66
2022-10-13T12:54:22.688Z,95458.38
2022-10-13T12:56:55.359Z,95464.69
2022-10-13T12:59:24.847Z,95459.88
2022-10-13T13:02:00.928Z,95455.38
2022-10-13T13:04:28.411Z,95451.34
2022-10-13T13:07:04.924Z,95456.25
2022-10-13T13:09:33.221Z,95453.25
2022-10-13T13:12:22.752Z,95443.31
2022-10-13T13:14:53.576Z,95438.72
2022-10-13T13:17:38.813Z,95444.69
2022-10-13T13:20:33.486Z,95450.28
2022-10-13T13:23:00.768Z,95442.25
2022-10-13T13:25:27.659Z,95437.66
2022-10-13T13:27:54.408Z,95444.88
2022-10-13T13:30:23.939Z,95433.06
2022-10-13T13:32:51.338Z,95433.50
2022-10-13T13:35:18.623Z,95448.25
2022-10-13T13:37:49.894Z,95443.50
2022-10-13T13:40:25.044Z,95431.09
2022-10-13T13:42:52.349Z,95444.34
2022-10-13T13:45:21.963Z,95440.69
2022-10-13T13:47:49.853Z,95441.41
2022-10-13T13:50:20.883Z,95438.97
2022-10-13T13:52:56.372Z,95430.34
2022-10-13T13:55:23.815Z,95437.91
2022-10-13T13:57:50.526Z,95436.06
2022-10-13T14:00:20.337Z,95434.38
2022-10-13T14:02:53.247Z,95431.03
2022-10-13T14:05:20.285Z,95431.53
2022-10-13T14:07:47.173Z,95441.19
2022-10-13T14:10:14.002Z,95441.88
2022-10-13T14:12:40.741Z,95431.41
2022-10-13T14:15:08.207Z,95433.09
2022-10-13T14:17:35.137Z,95427.16
2022-10-13T14:20:01.977Z,95429.28
2022-10-13T14:22:28.710Z,95423.56
2022-10-13T14:24:55.928Z,95424.09
2022-10-13T14:27:23.236Z,95421.63
2022-10-13T14:29:49.934Z,95420.78
2022-10-13T14:32:18.139Z,95428.16
2022-10-13T14:34:45.226Z,95431.91
2022-10-13T14:37:11.906Z,95431.81
2022-10-13T14:39:38.747Z,95426.22
2022-10-13T14:42:05.600Z,95426.53
2022-10-13T14:44:32.322Z,95431.25
2022-10-13T14:46:59.106Z,95435.81
2022-10-13T14:49:28.090Z,95428.97
2022-10-13T14:51:55.006Z,95436.56
2022-10-13T14:54:21.754Z,95431.47
2022-10-13T14:56:48.615Z,95432.84
2022-10-13T14:59:15.644Z,95428.28
2022-10-13T15:01:43.462Z,95430.53
2022-10-13T15:04:10.635Z,95431.25
2022-10-13T15:06:41.668Z,95430.53
2022-10-13T15:09:10.412Z,95440.91
2022-10-13T15:11:37.476Z,95440.72
2022-10-13T15:14:04.595Z,95429.19
2022-10-13T15:16:36.966Z,95423.69
2022-10-13T15:19:04.279Z,95422.63
2022-10-13T15:21:31.007Z,95436.22
2022-10-13T15:23:57.874Z,95430.41
2022-10-13T15:26:24.656Z,95432.50
2022-10-13T15:28:53.064Z,95432.69
2022-10-13T15:31:21.883Z,95436.22
2022-10-13T15:33:51.823Z,95425.78
2022-10-13T15:36:24.541Z,95434.81
2022-10-13T15:38:52.292Z,95435.56
2022-10-13T15:41:19.815Z,95437.00
2022-10-13T15:43:47.614Z,95435.31
2022-10-13T15:46:21.404Z,95430.16
2022-10-13T15:48:49.620Z,95429.22
2022-10-13T15:51:19.527Z,95427.69
2022-10-13T15:53:47.516Z,95430.59
2022-10-13T15:56:14.635Z,95439.88
2022-10-13T15:58:41.772Z,95442.97
2022-10-13T16:01:12.645Z,95431.72
2022-10-13T16:03:40.030Z,95444.44
2022-10-13T16:06:08.955Z,95446.63
2022-10-13T16:08:40.820Z,95445.19
2022-10-13T16:11:13.127Z,95451.00
2022-10-13T16:13:40.941Z,95447.22
2022-10-13T16:16:08.348Z,95447.22
2022-10-13T16:18:37.413Z,95456.19
2022-10-13T16:21:18.052Z,95443.78
2022-10-13T16:23:46.887Z,95447.56
2022-10-13T16:26:14.455Z,95450.72
2022-10-13T16:28:41.306Z,95458.59
2022-10-13T16:31:12.862Z,95447.44
2022-10-13T16:33:43.854Z,95453.59
2022-10-13T16:36:14.406Z,95449.66
2022-10-13T16:38:42.028Z,95447.44
2022-10-13T16:41:12.570Z,95462.84
2022-10-13T16:43:39.499Z,95456.06
2022-10-13T16:46:08.307Z,95461.75
2022-10-13T16:48:35.039Z,95455.78
2022-10-13T16:51:06.825Z,95459.81
2022-10-13T16:53:34.413Z,95465.06
2022-10-13T16:56:01.269Z,95464.25
2022-10-13T16:58:27.931Z,95460.00
2022-10-13T17:01:08.810Z,95464.25
2022-10-13T17:03:39.847Z,95453.88
2022-10-13T17:06:07.126Z,95458.28
2022-10-13T17:08:34.022Z,95456.09
2022-10-13T17:11:03.364Z,95462.06
2022-10-13T17:13:31.315Z,95468.72
2022-10-13T17:15:58.309Z,95467.06
2022-10-13T17:18:26.797Z,95467.66
2022-10-13T17:21:02.055Z,95471.63
2022-10-13T17:23:29.735Z,95461.41
2022-10-13T17:26:01.895Z,95462.19
2022-10-13T17:28:29.130Z,95467.66
2022-10-13T17:31:01.012Z,95469.78
2022-10-13T17:33:28.923Z,95456.09
2022-10-13T17:36:04.585Z,95465.72
2022-10-13T17:38:33.042Z,95468.06
2022-10-13T17:41:04.840Z,95462.16
2022-10-13T17:43:34.501Z,95459.03
2022-10-13T17:46:35.694Z,95461.28
2022-10-13T17:49:04.339Z,95460.59
2022-10-13T17:51:31.300Z,95468.78
2022-10-13T17:53:59.634Z,95462.19
2022-10-13T17:56:27.060Z,95458.78
2022-10-13T17:58:54.389Z,95466.38
2022-10-13T18:01:27.378Z,95467.81
2022-10-13T18:03:57.145Z,95463.88
2022-10-13T18:06:29.781Z,95473.38
2022-10-13T18:08:58.206Z,95463.88
2022-10-13T18:11:25.452Z,95474.16
2022-10-13T18:13:52.769Z,95469.75
2022-10-13T18:16:22.247Z,95473.31
2022-10-13T18:18:50.192Z,95478.97
2022-10-13T18:21:22.251Z,95478.34
2022-10-13T18:23:54.307Z,95481.19
2022-10-13T18:26:22.053Z,95475.19
2022-10-13T18:28:49.430Z,95484.63
2022-10-13T18:31:30.745Z,95474.91
2022-10-13T18:34:07.075Z,95471.31
2022-10-13T18:36:42.142Z,95489.19
2022-10-13T18:39:18.204Z,95491.91
2022-10-13T18:41:49.017Z,95488.88
2022-10-13T18:44:16.171Z,95489.31
2022-10-13T18:46:43.110Z,95484.03
2022-10-13T18:49:14.936Z,95480.66
2022-10-13T18:51:43.284Z,95473.22
2022-10-13T18:54:10.070Z,95473.06
2022-10-13T18:56:37.206Z,95478.81
2022-10-13T18:59:05.581Z,95490.53
2022-10-13T19:01:34.149Z,95490.00
2022-10-13T19:04:01.301Z,95486.88
2022-10-13T19:06:31.881Z,95485.72
2022-10-13T19:09:04.759Z,95492.19
2022-10-13T19:11:35.279Z,95492.34
2022-10-13T19:14:02.948Z,95489.91
2022-10-13T19:16:31.887Z,95489.69
2022-10-13T19:18:58.652Z,95484.31
2022-10-13T19:21:25.698Z,95498.28
2022-10-13T19:23:52.888Z,95475.75
2022-10-13T19:26:25.857Z,95496.47
2022-10-13T19:28:57.477Z,95483.56
2022-10-13T19:31:27.105Z,95492.75
2022-10-13T19:33:56.029Z,95479.91
2022-10-13T19:36:34.971Z,95482.56
2022-10-13T19:39:07.077Z,95476.84
2022-10-13T19:41:34.425Z,95481.50
2022-10-13T19:44:02.418Z,95486.34
2022-10-13T19:46:39.021Z,95480.97
2022-10-13T19:49:06.599Z,95482.41
2022-10-13T19:51:35.721Z,95490.31
2022-10-13T19:54:02.639Z,95494.44
2022-10-13T19:56:31.674Z,95481.44
2022-10-13T19:58:59.449Z,95493.34
2022-10-13T20:01:26.857Z,95483.91
2022-10-13T20:03:54.272Z,95490.25
2022-10-13T20:06:21.732Z,95488.56
2022-10-13T20:08:48.976Z,95476.25
2022-10-13T20:11:23.467Z,95490.13
2022-10-13T20:13:52.749Z,95482.13
2022-10-13T20:16:22.513Z,95478.97
2022-10-13T20:18:54.722Z,95482.13
2022-10-13T20:21:22.539Z,95488.94
2022-10-13T20:23:50.081Z,95484.31
2022-10-13T20:26:17.574Z,95485.59
2022-10-13T20:28:46.627Z,95480.53
2022-10-13T20:31:16.328Z,95483.84
2022-10-13T20:33:43.468Z,95480.34
2022-10-13T20:36:15.838Z,95477.41
2022-10-13T20:38:42.737Z,95469.31
2022-10-13T20:41:18.489Z,95475.00
2022-10-13T20:43:46.559Z,95480.66
2022-10-13T20:46:14.769Z,95480.84
2022-10-13T20:49:09.486Z,95478.56
2022-10-13T20:51:29.662Z,95479.38
2022-10-13T20:53:56.755Z,95467.75
2022-10-13T20:56:26.305Z,95466.25
2022-10-13T20:58:53.533Z,95462.81
2022-10-13T21:01:22.513Z,95463.50
2022-10-13T21:03:53.737Z,95465.97
2022-10-13T21:06:21.255Z,95465.00
2022-10-13T21:08:48.427Z,95462.63
2022-10-13T21:11:16.887Z,95464.16
2022-10-13T21:13:45.157Z,95464.44
2022-10-13T21:16:14.242Z,95462.88
2022-10-13T21:18:45.815Z,95471.28
2022-10-13T21:21:12.672Z,95465.16
2022-10-13T21:23:41.054Z,95456.41
2022-10-13T21:26:09.455Z,95448.78
2022-10-13T21:28:38.457Z,95444.31
2022-10-13T21:31:08.460Z,95444.72
2022-10-13T21:33:37.247Z,95444.53
2022-10-13T21:36:12.995Z,95447.06
2022-10-13T21:38:40.497Z,95431.97
2022-10-13T21:41:09.406Z,95439.81
2022-10-13T21:43:36.155Z,95432.34
2022-10-13T21:46:12.814Z,95430.94
2022-10-13T21:48:43.569Z,95426.75
2022-10-13T21:51:22.334Z,95426.22
2022-10-13T21:53:51.059Z,95433.69
2022-10-13T21:56:18.663Z,95428.41
2022-10-13T21:58:45.715Z,95413.81
2022-10-13T22:01:13.253Z,95420.50
2022-10-13T22:03:41.639Z,95418.06
2022-10-13T22:06:17.432Z,95419.63
2022-10-13T22:08:47.539Z,95414.00
2022-10-13T22:11:19.455Z,95421.22
2022-10-13T22:13:46.461Z,95400.75
2022-10-13T22:16:22.289Z,95412.38
2022-10-13T22:18:52.771Z,95401.13
2022-10-13T22:21:23.459Z,95424.94
2022-10-13T22:23:50.422Z,95413.03
2022-10-13T22:26:18.328Z,95430.34
2022-10-13T22:28:48.136Z,95422.28
2022-10-13T22:31:15.219Z,95428.78
2022-10-13T22:33:43.340Z,95431.13
2022-10-13T22:36:15.551Z,95423.47
2022-10-13T22:38:43.732Z,95426.63
2022-10-13T22:41:10.905Z,95425.06
2022-10-13T22:43:37.744Z,95422.88
2022-10-13T22:46:14.959Z,95416.97
2022-10-13T22:48:41.849Z,95404.00
2022-10-13T22:51:17.044Z,95416.97
2022-10-13T22:53:44.590Z,95417.38
2022-10-13T22:56:17.767Z,95418.16
2022-10-13T22:58:49.913Z,95421.91
2022-10-13T23:01:17.311Z,95425.03
2022-10-13T23:03:47.922Z,95419.06
2022-10-13T23:06:16.696Z,95419.16
2022-10-13T23:08:43.595Z,95420.13
2022-10-13T23:11:10.632Z,95425.25
2022-10-13T23:13:37.847Z,95411.09
2022-10-13T23:16:10.773Z,95411.84
2022-10-13T23:18:39.144Z,95417.97
2022-10-13T23:21:11.775Z,95422.28
2022-10-13T23:23:38.742Z,95418.31
2022-10-13T23:26:11.447Z,95424.59
2022-10-13T23:28:38.754Z,95425.91
2022-10-13T23:31:08.172Z,95422.94
2022-10-13T23:33:36.073Z,95420.47
2022-10-13T23:36:05.100Z,95417.84
2022-10-13T23:38:33.837Z,95415.69
2022-10-13T23:41:09.049Z,95420.69
2022-10-13T23:43:36.251Z,95403.59
2022-10-13T23:46:04.047Z,95428.59
2022-10-13T23:48:31.199Z,95423.66
2022-10-13T23:50:58.101Z,95420.00
2022-10-13T23:53:25.066Z,95430.56
2022-10-13T23:55:51.916Z,95431.53
2022-10-13T23:58:25.675Z,95429.75
